sensor_id;sensor_type;location;lat;lon;timestamp;P1;durP1;ratioP1;P2;durP2;ratioP2
18411;SDS011;27097;51.738;19.472;2023-05-10T00:01:12;11.40;;;4.35;;
18411;SDS011;27097;51.738;19.472;2023-05-10T00:03:39;9.13;;;3.95;;
18411;SDS011;27097;51.738;19.472;2023-05-10T00:06:06;10.27;;;3.95;;
18411;SDS011;27097;51.738;19.472;2023-05-10T00:08:33;8.43;;;3.95;;
18411;SDS011;27097;51.738;19.472;2023-05-10T00:11:00;11.35;;;4.13;;
18411;SDS011;27097;51.738;19.472;2023-05-10T00:13:27;10.38;;;3.95;;
18411;SDS011;27097;51.738;19.472;2023-05-10T00:15:55;9.10;;;4.13;;
18411;SDS011;27097;51.738;19.472;2023-05-10T00:18:22;9.93;;;3.75;;
18411;SDS011;27097;51.738;19.472;2023-05-10T00:20:49;8.35;;;3.63;;
18411;SDS011;27097;51.738;19.472;2023-05-10T00:23:15;9.20;;;3.83;;
18411;SDS011;27097;51.738;19.472;2023-05-10T00:25:42;8.00;;;3.95;;
18411;SDS011;27097;51.738;19.472;2023-05-10T00:28:09;8.68;;;4.18;;
18411;SDS011;27097;51.738;19.472;2023-05-10T00:30:36;7.40;;;3.70;;
18411;SDS011;27097;51.738;19.472;2023-05-10T00:33:04;6.05;;;3.22;;
18411;SDS011;27097;51.738;19.472;2023-05-10T00:35:31;8.68;;;4.45;;
18411;SDS011;27097;51.738;19.472;2023-05-10T00:37:58;8.68;;;4.20;;
18411;SDS011;27097;51.738;19.472;2023-05-10T00:40:25;7.43;;;4.20;;
18411;SDS011;27097;51.738;19.472;2023-05-10T00:42:53;8.02;;;3.80;;
18411;SDS011;27097;51.738;19.472;2023-05-10T00:45:20;8.40;;;3.30;;
18411;SDS011;27097;51.738;19.472;2023-05-10T00:47:47;6.82;;;3.72;;
18411;SDS011;27097;51.738;19.472;2023-05-10T00:50:15;9.27;;;4.03;;
18411;SDS011;27097;51.738;19.472;2023-05-10T00:52:42;7.35;;;3.47;;
18411;SDS011;27097;51.738;19.472;2023-05-10T00:55:09;6.93;;;3.42;;
18411;SDS011;27097;51.738;19.472;2023-05-10T00:57:38;9.18;;;3.55;;
18411;SDS011;27097;51.738;19.472;2023-05-10T01:00:06;11.38;;;3.95;;
18411;SDS011;27097;51.738;19.472;2023-05-10T01:02:33;11.27;;;3.72;;
18411;SDS011;27097;51.738;19.472;2023-05-10T01:05:00;6.78;;;3.30;;
18411;SDS011;27097;51.738;19.472;2023-05-10T01:07:31;7.72;;;3.58;;
18411;SDS011;27097;51.738;19.472;2023-05-10T01:09:58;6.03;;;3.45;;
18411;SDS011;27097;51.738;19.472;2023-05-10T01:12:25;8.77;;;3.50;;
18411;SDS011;27097;51.738;19.472;2023-05-10T01:14:53;7.20;;;3.70;;
18411;SDS011;27097;51.738;19.472;2023-05-10T01:17:26;7.97;;;3.50;;
18411;SDS011;27097;51.738;19.472;2023-05-10T01:19:53;6.75;;;3.67;;
18411;SDS011;27097;51.738;19.472;2023-05-10T01:22:35;8.25;;;3.55;;
18411;SDS011;27097;51.738;19.472;2023-05-10T01:28:29;10.63;;;3.42;;
18411;SDS011;27097;51.738;19.472;2023-05-10T01:31:27;10.90;;;4.10;;
18411;SDS011;27097;51.738;19.472;2023-05-10T01:34:11;7.13;;;3.70;;
18411;SDS011;27097;51.738;19.472;2023-05-10T01:36:43;7.25;;;3.33;;
18411;SDS011;27097;51.738;19.472;2023-05-10T01:39:20;6.30;;;3.42;;
18411;SDS011;27097;51.738;19.472;2023-05-10T01:42:05;6.47;;;3.65;;
18411;SDS011;27097;51.738;19.472;2023-05-10T01:44:37;6.90;;;3.20;;
18411;SDS011;27097;51.738;19.472;2023-05-10T01:47:09;5.15;;;3.25;;
18411;SDS011;27097;51.738;19.472;2023-05-10T01:49:41;8.18;;;3.20;;
18411;SDS011;27097;51.738;19.472;2023-05-10T01:52:12;5.63;;;3.40;;
18411;SDS011;27097;51.738;19.472;2023-05-10T01:54:49;6.80;;;3.28;;
18411;SDS011;27097;51.738;19.472;2023-05-10T01:57:20;5.82;;;3.33;;
18411;SDS011;27097;51.738;19.472;2023-05-10T02:00:07;6.18;;;3.40;;
18411;SDS011;27097;51.738;19.472;2023-05-10T02:02:40;5.75;;;3.35;;
18411;SDS011;27097;51.738;19.472;2023-05-10T02:05:14;5.60;;;3.22;;
18411;SDS011;27097;51.738;19.472;2023-05-10T02:07:42;7.60;;;3.50;;
18411;SDS011;27097;51.738;19.472;2023-05-10T02:10:09;6.47;;;3.38;;
18411;SDS011;27097;51.738;19.472;2023-05-10T02:12:39;5.32;;;3.35;;
18411;SDS011;27097;51.738;19.472;2023-05-10T02:15:08;6.20;;;3.28;;
18411;SDS011;27097;51.738;19.472;2023-05-10T02:17:38;8.20;;;3.70;;
18411;SDS011;27097;51.738;19.472;2023-05-10T02:20:08;5.95;;;3.38;;
18411;SDS011;27097;51.738;19.472;2023-05-10T02:22:37;9.02;;;3.08;;
18411;SDS011;27097;51.738;19.472;2023-05-10T02:25:06;6.07;;;3.35;;
18411;SDS011;27097;51.738;19.472;2023-05-10T02:27:35;7.05;;;3.53;;
18411;SDS011;27097;51.738;19.472;2023-05-10T02:30:03;5.03;;;3.38;;
18411;SDS011;27097;51.738;19.472;2023-05-10T02:32:32;6.00;;;3.45;;
18411;SDS011;27097;51.738;19.472;2023-05-10T02:35:01;9.38;;;3.80;;
18411;SDS011;27097;51.738;19.472;2023-05-10T02:37:29;4.47;;;3.03;;
18411;SDS011;27097;51.738;19.472;2023-05-10T02:39:59;5.78;;;3.33;;
18411;SDS011;27097;51.738;19.472;2023-05-10T02:42:28;8.35;;;3.30;;
18411;SDS011;27097;51.738;19.472;2023-05-10T02:44:59;11.20;;;3.53;;
18411;SDS011;27097;51.738;19.472;2023-05-10T02:47:27;4.43;;;3.00;;
18411;SDS011;27097;51.738;19.472;2023-05-10T02:49:54;7.38;;;3.55;;
18411;SDS011;27097;51.738;19.472;2023-05-10T02:52:23;6.70;;;3.40;;
18411;SDS011;27097;51.738;19.472;2023-05-10T02:54:54;5.97;;;2.95;;
18411;SDS011;27097;51.738;19.472;2023-05-10T02:57:26;4.90;;;3.13;;
18411;SDS011;27097;51.738;19.472;2023-05-10T02:59:56;8.93;;;3.35;;
18411;SDS011;27097;51.738;19.472;2023-05-10T03:02:27;10.75;;;3.10;;
18411;SDS011;27097;51.738;19.472;2023-05-10T03:04:55;5.47;;;3.17;;
18411;SDS011;27097;51.738;19.472;2023-05-10T03:07:22;6.50;;;3.28;;
18411;SDS011;27097;51.738;19.472;2023-05-10T03:09:49;6.05;;;3.20;;
18411;SDS011;27097;51.738;19.472;2023-05-10T03:12:19;9.23;;;3.15;;
18411;SDS011;27097;51.738;19.472;2023-05-10T03:14:59;4.68;;;2.95;;
18411;SDS011;27097;51.738;19.472;2023-05-10T03:17:30;7.28;;;3.40;;
18411;SDS011;27097;51.738;19.472;2023-05-10T03:20:12;5.20;;;3.00;;
18411;SDS011;27097;51.738;19.472;2023-05-10T03:22:47;7.45;;;3.15;;
18411;SDS011;27097;51.738;19.472;2023-05-10T03:25:17;6.10;;;2.95;;
18411;SDS011;27097;51.738;19.472;2023-05-10T03:27:47;6.53;;;3.30;;
18411;SDS011;27097;51.738;19.472;2023-05-10T03:30:16;6.78;;;3.20;;
18411;SDS011;27097;51.738;19.472;2023-05-10T03:32:43;6.45;;;3.50;;
18411;SDS011;27097;51.738;19.472;2023-05-10T03:35:10;4.70;;;3.00;;
18411;SDS011;27097;51.738;19.472;2023-05-10T03:37:39;5.07;;;2.97;;
18411;SDS011;27097;51.738;19.472;2023-05-10T03:40:06;8.15;;;2.92;;
18411;SDS011;27097;51.738;19.472;2023-05-10T03:42:34;4.53;;;2.80;;
18411;SDS011;27097;51.738;19.472;2023-05-10T03:45:01;6.68;;;2.95;;
18411;SDS011;27097;51.738;19.472;2023-05-10T03:47:29;5.45;;;2.95;;
18411;SDS011;27097;51.738;19.472;2023-05-10T03:49:56;6.95;;;3.10;;
18411;SDS011;27097;51.738;19.472;2023-05-10T03:52:23;4.57;;;2.70;;
18411;SDS011;27097;51.738;19.472;2023-05-10T03:54:50;5.53;;;2.65;;
18411;SDS011;27097;51.738;19.472;2023-05-10T03:57:17;4.80;;;3.10;;
18411;SDS011;27097;51.738;19.472;2023-05-10T03:59:43;4.97;;;2.95;;
18411;SDS011;27097;51.738;19.472;2023-05-10T04:02:10;4.13;;;2.90;;
18411;SDS011;27097;51.738;19.472;2023-05-10T04:04:39;5.18;;;3.08;;
18411;SDS011;27097;51.738;19.472;2023-05-10T04:07:05;8.10;;;2.80;;
18411;SDS011;27097;51.738;19.472;2023-05-10T04:09:32;9.50;;;3.15;;
18411;SDS011;27097;51.738;19.472;2023-05-10T04:11:59;5.53;;;3.03;;
18411;SDS011;27097;51.738;19.472;2023-05-10T04:14:27;5.72;;;3.22;;
18411;SDS011;27097;51.738;19.472;2023-05-10T04:16:54;6.03;;;3.05;;
18411;SDS011;27097;51.738;19.472;2023-05-10T04:19:21;5.97;;;2.65;;
18411;SDS011;27097;51.738;19.472;2023-05-10T04:21:49;3.95;;;2.67;;
18411;SDS011;27097;51.738;19.472;2023-05-10T04:24:15;8.07;;;2.85;;
18411;SDS011;27097;51.738;19.472;2023-05-10T04:26:42;5.25;;;3.00;;
18411;SDS011;27097;51.738;19.472;2023-05-10T04:31:34;4.88;;;2.90;;
18411;SDS011;27097;51.738;19.472;2023-05-10T04:34:02;8.02;;;3.00;;
18411;SDS011;27097;51.738;19.472;2023-05-10T04:36:29;4.38;;;2.80;;
18411;SDS011;27097;51.738;19.472;2023-05-10T04:38:58;5.15;;;2.92;;
18411;SDS011;27097;51.738;19.472;2023-05-10T04:41:25;4.28;;;2.90;;
18411;SDS011;27097;51.738;19.472;2023-05-10T04:43:52;4.38;;;2.67;;
18411;SDS011;27097;51.738;19.472;2023-05-10T04:46:19;3.53;;;2.83;;
18411;SDS011;27097;51.738;19.472;2023-05-10T04:48:46;5.30;;;2.83;;
18411;SDS011;27097;51.738;19.472;2023-05-10T04:51:13;6.97;;;2.80;;
18411;SDS011;27097;51.738;19.472;2023-05-10T04:53:40;5.82;;;3.17;;
18411;SDS011;27097;51.738;19.472;2023-05-10T04:56:08;5.15;;;2.95;;
18411;SDS011;27097;51.738;19.472;2023-05-10T04:58:35;6.28;;;2.50;;
18411;SDS011;27097;51.738;19.472;2023-05-10T05:01:05;5.07;;;2.78;;
18411;SDS011;27097;51.738;19.472;2023-05-10T05:03:33;3.40;;;2.83;;
18411;SDS011;27097;51.738;19.472;2023-05-10T05:06:00;5.63;;;2.88;;
18411;SDS011;27097;51.738;19.472;2023-05-10T05:08:26;4.80;;;2.75;;
18411;SDS011;27097;51.738;19.472;2023-05-10T05:10:53;6.25;;;2.67;;
18411;SDS011;27097;51.738;19.472;2023-05-10T05:13:22;7.15;;;2.80;;
18411;SDS011;27097;51.738;19.472;2023-05-10T05:15:49;4.50;;;2.65;;
18411;SDS011;27097;51.738;19.472;2023-05-10T05:18:15;5.90;;;3.10;;
18411;SDS011;27097;51.738;19.472;2023-05-10T05:20:42;4.55;;;2.70;;
18411;SDS011;27097;51.738;19.472;2023-05-10T05:23:09;7.32;;;2.50;;
18411;SDS011;27097;51.738;19.472;2023-05-10T05:25:36;6.28;;;2.85;;
18411;SDS011;27097;51.738;19.472;2023-05-10T05:28:03;6.07;;;2.88;;
18411;SDS011;27097;51.738;19.472;2023-05-10T05:30:32;5.95;;;2.80;;
18411;SDS011;27097;51.738;19.472;2023-05-10T05:33:01;7.53;;;3.30;;
18411;SDS011;27097;51.738;19.472;2023-05-10T05:35:28;6.25;;;2.80;;
18411;SDS011;27097;51.738;19.472;2023-05-10T05:37:55;10.48;;;3.47;;
18411;SDS011;27097;51.738;19.472;2023-05-10T05:40:22;9.00;;;3.83;;
18411;SDS011;27097;51.738;19.472;2023-05-10T05:42:49;6.50;;;3.33;;
18411;SDS011;27097;51.738;19.472;2023-05-10T05:45:16;6.28;;;3.40;;
18411;SDS011;27097;51.738;19.472;2023-05-10T05:47:44;8.20;;;3.38;;
18411;SDS011;27097;51.738;19.472;2023-05-10T05:50:11;6.00;;;3.08;;
18411;SDS011;27097;51.738;19.472;2023-05-10T05:52:38;9.80;;;3.10;;
18411;SDS011;27097;51.738;19.472;2023-05-10T05:55:05;10.43;;;3.00;;
18411;SDS011;27097;51.738;19.472;2023-05-10T05:57:32;21.23;;;3.67;;
18411;SDS011;27097;51.738;19.472;2023-05-10T05:59:59;10.40;;;3.13;;
18411;SDS011;27097;51.738;19.472;2023-05-10T06:02:27;9.05;;;3.03;;
18411;SDS011;27097;51.738;19.472;2023-05-10T06:04:55;11.43;;;3.53;;
18411;SDS011;27097;51.738;19.472;2023-05-10T06:07:22;15.75;;;3.55;;
18411;SDS011;27097;51.738;19.472;2023-05-10T06:09:50;8.57;;;3.42;;
18411;SDS011;27097;51.738;19.472;2023-05-10T06:12:17;10.13;;;3.88;;
18411;SDS011;27097;51.738;19.472;2023-05-10T06:14:44;15.38;;;3.75;;
18411;SDS011;27097;51.738;19.472;2023-05-10T06:17:10;18.08;;;4.90;;
18411;SDS011;27097;51.738;19.472;2023-05-10T06:19:37;22.77;;;4.55;;
18411;SDS011;27097;51.738;19.472;2023-05-10T06:22:05;19.52;;;4.22;;
18411;SDS011;27097;51.738;19.472;2023-05-10T06:24:32;23.13;;;4.50;;
18411;SDS011;27097;51.738;19.472;2023-05-10T06:26:59;16.75;;;4.25;;
18411;SDS011;27097;51.738;19.472;2023-05-10T06:29:27;20.10;;;4.43;;
18411;SDS011;27097;51.738;19.472;2023-05-10T06:31:54;14.55;;;4.07;;
18411;SDS011;27097;51.738;19.472;2023-05-10T06:34:20;14.40;;;4.13;;
18411;SDS011;27097;51.738;19.472;2023-05-10T06:36:47;13.60;;;4.13;;
18411;SDS011;27097;51.738;19.472;2023-05-10T06:39:16;18.88;;;4.22;;
18411;SDS011;27097;51.738;19.472;2023-05-10T06:41:43;12.85;;;4.45;;
18411;SDS011;27097;51.738;19.472;2023-05-10T06:44:10;13.35;;;4.15;;
18411;SDS011;27097;51.738;19.472;2023-05-10T06:46:38;18.50;;;3.92;;
18411;SDS011;27097;51.738;19.472;2023-05-10T06:54:36;24.42;;;4.53;;
18411;SDS011;27097;51.738;19.472;2023-05-10T07:03:06;13.27;;;4.75;;
18411;SDS011;27097;51.738;19.472;2023-05-10T07:14:08;14.98;;;3.92;;
18411;SDS011;27097;51.738;19.472;2023-05-10T07:16:35;9.90;;;3.40;;
18411;SDS011;27097;51.738;19.472;2023-05-10T07:19:04;8.43;;;3.42;;
18411;SDS011;27097;51.738;19.472;2023-05-10T07:21:32;12.05;;;3.55;;
18411;SDS011;27097;51.738;19.472;2023-05-10T07:24:00;9.15;;;3.72;;
18411;SDS011;27097;51.738;19.472;2023-05-10T07:26:53;8.20;;;3.75;;
18411;SDS011;27097;51.738;19.472;2023-05-10T07:29:35;8.77;;;3.75;;
18411;SDS011;27097;51.738;19.472;2023-05-10T07:32:02;14.43;;;3.70;;
18411;SDS011;27097;51.738;19.472;2023-05-10T07:34:29;11.57;;;3.30;;
18411;SDS011;27097;51.738;19.472;2023-05-10T07:36:57;9.35;;;3.53;;
18411;SDS011;27097;51.738;19.472;2023-05-10T07:39:25;11.55;;;3.70;;
18411;SDS011;27097;51.738;19.472;2023-05-10T07:41:52;10.02;;;3.67;;
18411;SDS011;27097;51.738;19.472;2023-05-10T07:44:19;8.38;;;3.40;;
18411;SDS011;27097;51.738;19.472;2023-05-10T07:46:47;8.57;;;3.70;;
18411;SDS011;27097;51.738;19.472;2023-05-10T07:49:22;16.85;;;3.10;;
18411;SDS011;27097;51.738;19.472;2023-05-10T07:51:49;8.77;;;3.67;;
18411;SDS011;27097;51.738;19.472;2023-05-10T07:54:16;7.95;;;3.70;;
18411;SDS011;27097;51.738;19.472;2023-05-10T07:56:48;11.48;;;3.40;;
18411;SDS011;27097;51.738;19.472;2023-05-10T07:59:16;13.65;;;3.58;;
18411;SDS011;27097;51.738;19.472;2023-05-10T08:01:43;10.38;;;3.50;;
18411;SDS011;27097;51.738;19.472;2023-05-10T08:10:18;8.07;;;3.47;;
18411;SDS011;27097;51.738;19.472;2023-05-10T08:12:59;16.10;;;3.40;;
18411;SDS011;27097;51.738;19.472;2023-05-10T08:15:25;11.65;;;3.42;;
18411;SDS011;27097;51.738;19.472;2023-05-10T08:17:52;8.65;;;3.63;;
18411;SDS011;27097;51.738;19.472;2023-05-10T08:22:52;5.78;;;3.10;;
18411;SDS011;27097;51.738;19.472;2023-05-10T08:25:22;9.00;;;3.30;;
18411;SDS011;27097;51.738;19.472;2023-05-10T08:34:00;14.90;;;3.53;;
18411;SDS011;27097;51.738;19.472;2023-05-10T08:36:28;12.20;;;3.50;;
18411;SDS011;27097;51.738;19.472;2023-05-10T08:48:59;9.82;;;3.38;;
18411;SDS011;27097;51.738;19.472;2023-05-10T08:51:50;18.42;;;3.80;;
18411;SDS011;27097;51.738;19.472;2023-05-10T08:54:22;25.35;;;3.83;;
18411;SDS011;27097;51.738;19.472;2023-05-10T08:56:59;18.38;;;3.45;;
18411;SDS011;27097;51.738;19.472;2023-05-10T08:59:26;20.85;;;3.35;;
18411;SDS011;27097;51.738;19.472;2023-05-10T09:01:53;16.83;;;2.95;;
18411;SDS011;27097;51.738;19.472;2023-05-10T09:04:23;13.13;;;3.20;;
18411;SDS011;27097;51.738;19.472;2023-05-10T09:06:51;16.13;;;3.30;;
18411;SDS011;27097;51.738;19.472;2023-05-10T09:09:18;10.68;;;3.13;;
18411;SDS011;27097;51.738;19.472;2023-05-10T09:11:46;13.00;;;2.88;;
18411;SDS011;27097;51.738;19.472;2023-05-10T09:14:15;8.75;;;3.30;;
18411;SDS011;27097;51.738;19.472;2023-05-10T09:16:42;13.13;;;3.25;;
18411;SDS011;27097;51.738;19.472;2023-05-10T09:19:09;8.93;;;2.83;;
18411;SDS011;27097;51.738;19.472;2023-05-10T09:21:36;5.55;;;3.40;;
18411;SDS011;27097;51.738;19.472;2023-05-10T09:24:06;6.07;;;3.00;;
18411;SDS011;27097;51.738;19.472;2023-05-10T09:26:33;8.98;;;3.45;;
18411;SDS011;27097;51.738;19.472;2023-05-10T09:29:01;8.60;;;3.17;;
18411;SDS011;27097;51.738;19.472;2023-05-10T09:31:44;8.45;;;3.30;;
18411;SDS011;27097;51.738;19.472;2023-05-10T09:34:15;5.78;;;3.17;;
18411;SDS011;27097;51.738;19.472;2023-05-10T09:36:51;8.00;;;3.00;;
18411;SDS011;27097;51.738;19.472;2023-05-10T09:39:29;9.15;;;3.08;;
18411;SDS011;27097;51.738;19.472;2023-05-10T09:41:58;10.27;;;3.13;;
18411;SDS011;27097;51.738;19.472;2023-05-10T09:44:25;8.50;;;3.00;;
18411;SDS011;27097;51.738;19.472;2023-05-10T09:46:55;6.57;;;3.03;;
18411;SDS011;27097;51.738;19.472;2023-05-10T09:49:39;9.48;;;3.17;;
18411;SDS011;27097;51.738;19.472;2023-05-10T09:52:19;4.20;;;2.90;;
18411;SDS011;27097;51.738;19.472;2023-05-10T09:54:47;7.75;;;3.42;;
18411;SDS011;27097;51.738;19.472;2023-05-10T09:57:19;6.20;;;3.08;;
18411;SDS011;27097;51.738;19.472;2023-05-10T09:59:47;10.35;;;3.00;;
18411;SDS011;27097;51.738;19.472;2023-05-10T10:02:15;8.38;;;3.00;;
18411;SDS011;27097;51.738;19.472;2023-05-10T10:04:42;4.43;;;2.95;;
18411;SDS011;27097;51.738;19.472;2023-05-10T10:07:09;6.20;;;3.38;;
18411;SDS011;27097;51.738;19.472;2023-05-10T10:12:42;4.78;;;2.92;;
18411;SDS011;27097;51.738;19.472;2023-05-10T10:15:13;5.00;;;3.28;;
18411;SDS011;27097;51.738;19.472;2023-05-10T10:39:51;5.72;;;2.90;;
18411;SDS011;27097;51.738;19.472;2023-05-10T10:45:21;5.07;;;3.00;;
18411;SDS011;27097;51.738;19.472;2023-05-10T10:51:11;4.25;;;3.25;;
18411;SDS011;27097;51.738;19.472;2023-05-10T10:53:43;3.95;;;3.13;;
18411;SDS011;27097;51.738;19.472;2023-05-10T10:56:34;6.40;;;3.10;;
18411;SDS011;27097;51.738;19.472;2023-05-10T10:59:33;3.85;;;2.75;;
18411;SDS011;27097;51.738;19.472;2023-05-10T11:24:33;5.05;;;2.92;;
18411;SDS011;27097;51.738;19.472;2023-05-10T11:39:13;4.22;;;2.80;;
18411;SDS011;27097;51.738;19.472;2023-05-10T11:41:41;4.25;;;2.90;;
18411;SDS011;27097;51.738;19.472;2023-05-10T11:44:08;4.47;;;2.85;;
18411;SDS011;27097;51.738;19.472;2023-05-10T11:46:35;6.80;;;3.13;;
18411;SDS011;27097;51.738;19.472;2023-05-10T11:49:02;5.88;;;3.10;;
18411;SDS011;27097;51.738;19.472;2023-05-10T11:51:33;3.85;;;2.70;;
18411;SDS011;27097;51.738;19.472;2023-05-10T11:54:05;5.20;;;2.70;;
18411;SDS011;27097;51.738;19.472;2023-05-10T11:56:34;3.40;;;2.83;;
18411;SDS011;27097;51.738;19.472;2023-05-10T11:59:03;6.82;;;3.05;;
18411;SDS011;27097;51.738;19.472;2023-05-10T12:01:30;9.07;;;3.13;;
18411;SDS011;27097;51.738;19.472;2023-05-10T12:03:57;4.35;;;3.05;;
18411;SDS011;27097;51.738;19.472;2023-05-10T12:06:26;3.47;;;2.92;;
18411;SDS011;27097;51.738;19.472;2023-05-10T12:08:53;4.97;;;2.92;;
18411;SDS011;27097;51.738;19.472;2023-05-10T12:11:20;3.20;;;2.90;;
18411;SDS011;27097;51.738;19.472;2023-05-10T12:13:51;4.13;;;2.80;;
18411;SDS011;27097;51.738;19.472;2023-05-10T12:16:20;4.03;;;3.22;;
18411;SDS011;27097;51.738;19.472;2023-05-10T12:18:48;4.70;;;3.00;;
18411;SDS011;27097;51.738;19.472;2023-05-10T12:21:16;6.43;;;3.15;;
18411;SDS011;27097;51.738;19.472;2023-05-10T12:23:44;9.85;;;3.78;;
18411;SDS011;27097;51.738;19.472;2023-05-10T12:26:12;10.52;;;3.55;;
18411;SDS011;27097;51.738;19.472;2023-05-10T12:28:40;12.00;;;3.60;;
18411;SDS011;27097;51.738;19.472;2023-05-10T12:31:07;9.63;;;4.00;;
18411;SDS011;27097;51.738;19.472;2023-05-10T12:33:39;9.38;;;3.78;;
18411;SDS011;27097;51.738;19.472;2023-05-10T12:36:07;7.63;;;3.75;;
18411;SDS011;27097;51.738;19.472;2023-05-10T12:38:35;7.85;;;3.67;;
18411;SDS011;27097;51.738;19.472;2023-05-10T12:41:04;10.13;;;3.90;;
18411;SDS011;27097;51.738;19.472;2023-05-10T12:43:32;9.98;;;3.65;;
18411;SDS011;27097;51.738;19.472;2023-05-10T12:46:10;8.75;;;3.65;;
18411;SDS011;27097;51.738;19.472;2023-05-10T12:48:40;7.30;;;3.75;;
18411;SDS011;27097;51.738;19.472;2023-05-10T12:51:07;8.15;;;3.70;;
18411;SDS011;27097;51.738;19.472;2023-05-10T12:53:37;8.23;;;3.45;;
18411;SDS011;27097;51.738;19.472;2023-05-10T12:56:04;7.75;;;3.42;;
18411;SDS011;27097;51.738;19.472;2023-05-10T12:58:32;8.73;;;3.78;;
18411;SDS011;27097;51.738;19.472;2023-05-10T13:01:00;8.93;;;3.45;;
18411;SDS011;27097;51.738;19.472;2023-05-10T13:03:36;7.00;;;3.47;;
18411;SDS011;27097;51.738;19.472;2023-05-10T13:06:20;7.05;;;3.67;;
18411;SDS011;27097;51.738;19.472;2023-05-10T13:08:47;6.15;;;3.28;;
18411;SDS011;27097;51.738;19.472;2023-05-10T13:11:14;5.38;;;3.30;;
18411;SDS011;27097;51.738;19.472;2023-05-10T13:13:41;5.95;;;3.50;;
18411;SDS011;27097;51.738;19.472;2023-05-10T13:16:09;5.38;;;3.13;;
18411;SDS011;27097;51.738;19.472;2023-05-10T13:18:36;6.10;;;3.35;;
18411;SDS011;27097;51.738;19.472;2023-05-10T13:21:03;5.03;;;2.97;;
18411;SDS011;27097;51.738;19.472;2023-05-10T13:23:32;5.88;;;3.13;;
18411;SDS011;27097;51.738;19.472;2023-05-10T13:25:58;5.72;;;3.30;;
18411;SDS011;27097;51.738;19.472;2023-05-10T13:28:25;4.50;;;3.20;;
18411;SDS011;27097;51.738;19.472;2023-05-10T13:30:52;4.93;;;2.90;;
18411;SDS011;27097;51.738;19.472;2023-05-10T13:33:19;7.55;;;3.50;;
18411;SDS011;27097;51.738;19.472;2023-05-10T13:35:46;5.22;;;3.17;;
18411;SDS011;27097;51.738;19.472;2023-05-10T13:38:13;5.38;;;3.33;;
18411;SDS011;27097;51.738;19.472;2023-05-10T13:40:41;7.15;;;3.50;;
18411;SDS011;27097;51.738;19.472;2023-05-10T13:43:09;5.55;;;3.20;;
18411;SDS011;27097;51.738;19.472;2023-05-10T13:45:36;5.75;;;3.30;;
18411;SDS011;27097;51.738;19.472;2023-05-10T13:48:07;4.80;;;3.20;;
18411;SDS011;27097;51.738;19.472;2023-05-10T13:50:33;4.28;;;2.85;;
18411;SDS011;27097;51.738;19.472;2023-05-10T13:53:06;5.53;;;2.97;;
18411;SDS011;27097;51.738;19.472;2023-05-10T13:55:33;6.20;;;3.10;;
18411;SDS011;27097;51.738;19.472;2023-05-10T13:58:02;5.38;;;3.20;;
18411;SDS011;27097;51.738;19.472;2023-05-10T14:00:29;4.10;;;3.13;;
18411;SDS011;27097;51.738;19.472;2023-05-10T14:02:55;4.93;;;3.20;;
18411;SDS011;27097;51.738;19.472;2023-05-10T14:05:22;4.88;;;3.08;;
18411;SDS011;27097;51.738;19.472;2023-05-10T14:07:49;3.60;;;2.90;;
18411;SDS011;27097;51.738;19.472;2023-05-10T14:10:16;4.20;;;3.00;;
18411;SDS011;27097;51.738;19.472;2023-05-10T14:12:43;4.10;;;3.03;;
18411;SDS011;27097;51.738;19.472;2023-05-10T14:15:12;4.22;;;2.92;;
18411;SDS011;27097;51.738;19.472;2023-05-10T14:17:38;5.07;;;3.08;;
18411;SDS011;27097;51.738;19.472;2023-05-10T14:20:06;4.20;;;3.00;;
18411;SDS011;27097;51.738;19.472;2023-05-10T14:22:33;5.95;;;2.83;;
18411;SDS011;27097;51.738;19.472;2023-05-10T14:25:00;5.47;;;3.00;;
18411;SDS011;27097;51.738;19.472;2023-05-10T14:27:27;4.57;;;3.00;;
18411;SDS011;27097;51.738;19.472;2023-05-10T14:29:55;4.38;;;2.80;;
18411;SDS011;27097;51.738;19.472;2023-05-10T14:32:23;5.18;;;3.00;;
18411;SDS011;27097;51.738;19.472;2023-05-10T14:34:51;6.20;;;3.15;;
18411;SDS011;27097;51.738;19.472;2023-05-10T14:37:18;4.80;;;3.00;;
18411;SDS011;27097;51.738;19.472;2023-05-10T14:39:46;4.00;;;3.00;;
18411;SDS011;27097;51.738;19.472;2023-05-10T14:42:12;5.72;;;2.97;;
18411;SDS011;27097;51.738;19.472;2023-05-10T14:44:41;5.63;;;3.13;;
18411;SDS011;27097;51.738;19.472;2023-05-10T14:47:08;4.70;;;3.25;;
18411;SDS011;27097;51.738;19.472;2023-05-10T14:49:36;6.03;;;3.08;;
18411;SDS011;27097;51.738;19.472;2023-05-10T14:52:03;3.13;;;2.83;;
18411;SDS011;27097;51.738;19.472;2023-05-10T14:54:30;5.68;;;3.03;;
18411;SDS011;27097;51.738;19.472;2023-05-10T14:56:58;4.40;;;3.30;;
18411;SDS011;27097;51.738;19.472;2023-05-10T14:59:25;4.57;;;2.90;;
18411;SDS011;27097;51.738;19.472;2023-05-10T15:01:52;3.70;;;2.40;;
18411;SDS011;27097;51.738;19.472;2023-05-10T15:04:19;3.67;;;3.00;;
18411;SDS011;27097;51.738;19.472;2023-05-10T15:06:50;5.65;;;2.80;;
18411;SDS011;27097;51.738;19.472;2023-05-10T15:09:17;4.28;;;2.97;;
18411;SDS011;27097;51.738;19.472;2023-05-10T15:11:44;3.83;;;2.70;;
18411;SDS011;27097;51.738;19.472;2023-05-10T15:14:11;3.63;;;2.92;;
18411;SDS011;27097;51.738;19.472;2023-05-10T15:16:38;3.88;;;2.78;;
18411;SDS011;27097;51.738;19.472;2023-05-10T15:19:05;5.25;;;3.65;;
18411;SDS011;27097;51.738;19.472;2023-05-10T15:21:32;3.72;;;2.80;;
18411;SDS011;27097;51.738;19.472;2023-05-10T15:24:05;4.57;;;2.97;;
18411;SDS011;27097;51.738;19.472;2023-05-10T15:26:32;6.28;;;2.47;;
18411;SDS011;27097;51.738;19.472;2023-05-10T15:28:59;4.82;;;2.92;;
18411;SDS011;27097;51.738;19.472;2023-05-10T15:31:29;4.85;;;2.88;;
18411;SDS011;27097;51.738;19.472;2023-05-10T15:33:57;7.32;;;3.00;;
18411;SDS011;27097;51.738;19.472;2023-05-10T15:36:25;3.85;;;2.90;;
18411;SDS011;27097;51.738;19.472;2023-05-10T15:39:08;4.82;;;2.45;;
18411;SDS011;27097;51.738;19.472;2023-05-10T15:41:35;4.07;;;3.08;;
18411;SDS011;27097;51.738;19.472;2023-05-10T15:44:02;4.25;;;3.10;;
18411;SDS011;27097;51.738;19.472;2023-05-10T15:46:29;7.55;;;3.25;;
18411;SDS011;27097;51.738;19.472;2023-05-10T15:48:56;3.95;;;2.95;;
18411;SDS011;27097;51.738;19.472;2023-05-10T15:54:15;4.10;;;2.50;;
18411;SDS011;27097;51.738;19.472;2023-05-10T15:56:42;5.13;;;2.75;;
18411;SDS011;27097;51.738;19.472;2023-05-10T15:59:09;6.68;;;2.70;;
18411;SDS011;27097;51.738;19.472;2023-05-10T16:01:36;3.63;;;2.75;;
18411;SDS011;27097;51.738;19.472;2023-05-10T16:04:03;7.55;;;3.05;;
18411;SDS011;27097;51.738;19.472;2023-05-10T16:06:29;6.05;;;2.80;;
18411;SDS011;27097;51.738;19.472;2023-05-10T16:08:56;3.78;;;2.80;;
18411;SDS011;27097;51.738;19.472;2023-05-10T16:11:25;6.63;;;3.22;;
18411;SDS011;27097;51.738;19.472;2023-05-10T16:13:52;4.35;;;2.40;;
18411;SDS011;27097;51.738;19.472;2023-05-10T16:16:19;3.58;;;2.80;;
18411;SDS011;27097;51.738;19.472;2023-05-10T16:18:46;4.65;;;2.63;;
18411;SDS011;27097;51.738;19.472;2023-05-10T16:21:13;7.05;;;2.80;;
18411;SDS011;27097;51.738;19.472;2023-05-10T16:26:42;3.22;;;2.60;;
18411;SDS011;27097;51.738;19.472;2023-05-10T16:29:09;3.17;;;2.50;;
18411;SDS011;27097;51.738;19.472;2023-05-10T16:31:36;3.53;;;2.50;;
18411;SDS011;27097;51.738;19.472;2023-05-10T16:34:03;4.57;;;2.97;;
18411;SDS011;27097;51.738;19.472;2023-05-10T16:48:35;5.40;;;2.78;;
18411;SDS011;27097;51.738;19.472;2023-05-10T16:51:06;3.50;;;2.40;;
18411;SDS011;27097;51.738;19.472;2023-05-10T16:53:34;5.43;;;2.30;;
18411;SDS011;27097;51.738;19.472;2023-05-10T16:56:01;4.20;;;2.55;;
18411;SDS011;27097;51.738;19.472;2023-05-10T17:01:30;3.42;;;2.63;;